Ruby Corner, New York
Current Conditions -  °F | °C
As of 7:42 PM on Thursday 18 Dec 2014 (Local Time) from KGTB Reporting Station
Unknown Precip Unknown Precip  
Wind Chill: 19°   Ceiling: 900
Heat Index: 27°   Visibility: 10mi
Dew Point: 21°   Wind: 7mph
Humidity: 80%   Direction: 310°NW
Pressure: 30"   Gusts: NA
Location:  44.435°N, 75.6656°W
Report Text: KGTB 190042Z AUTO 31006KT 10SM UP OVC009 M03/M06 A3000 RMK AO2 UPB0012
Loading
Personal Weather Stations






























Interactive Weather Map New forecast layout! Learn more

10-Day Weather Forecast

Advertisements
Track Severe Weather on mobile